METAR Data
IDs: Format: Raw Decoded Include TAF

Data at: 2122 UTC 24 Mar 2019

KGDJ 242115Z AUTO 21012G16KT 10SM SCT050 BKN065 29/15 A2997 RMK AO2 T02860152
KGDJ 242055Z AUTO 20011G16KT 10SM SCT050 SCT080 29/16 A2998 RMK AO2 T02930158
KGDJ 242035Z AUTO 21009KT 10SM SCT050 SCT060 SCT080 28/16 A2998 RMK AO2 T02800157
KGDJ 242015Z AUTO 19008KT 10SM BKN050 29/15 A2998 RMK AO2 T02860152
KGDJ 241955Z AUTO 18014G19KT 10SM SCT049 BKN060 29/15 A2999 RMK AO2 T02860153
KGDJ 241935Z AUTO 19016G19KT 10SM SCT049 SCT060 29/15 A2999 RMK AO2 T02880151
KGDJ 241915Z AUTO 21010G17KT 10SM SCT047 29/15 A3000 RMK AO2 T02850153
KGDJ 241855Z AUTO 21011G14KT 190V250 10SM BKN045 BKN050 28/16 A3001 RMK AO2 T02760155
KGDJ 241835Z AUTO 18010G14KT 10SM BKN043 28/16 A3002 RMK AO2 T02750157
KGDJ 241815Z AUTO 20007G10KT 10SM OVC041 27/16 A3003 RMK AO2 T02740159
KGDJ 241755Z AUTO 21010G16KT 10SM BKN039 27/16 A3003 RMK AO2 T02700162 10270 20155
KGDJ 241735Z AUTO 20012G15KT 10SM BKN037 26/16 A3004 RMK AO2 T02640162
KGDJ 241715Z AUTO 21010G15KT 10SM SCT033 26/16 A3005 RMK AO2 T02550164
KGDJ 241655Z AUTO 22012G17KT 10SM SCT031 25/16 A3006 RMK AO2 T02450164
KGDJ 241635Z AUTO 21014G18KT 10SM BKN031 25/16 A3006 RMK AO2 T02480163
KGDJ 241615Z AUTO 21013G19KT 10SM BKN027 24/17 A3006 RMK AO2 T02440166
KGDJ 241555Z AUTO 20013KT 10SM SCT025 23/17 A3007 RMK AO2 T02320165
KGDJ 241535Z AUTO 19012G17KT 10SM SCT020 SCT026 23/17 A3007 RMK AO2 T02250165
KGDJ 241515Z AUTO 19010KT 10SM SCT016 22/17 A3007 RMK AO2 T02150168
KGDJ 241455Z AUTO 17009KT 10SM SCT012 20/16 A3007 RMK AO2 T02010163
KGDJ 241435Z AUTO 17007KT 10SM BKN010 19/16 A3007 RMK AO2 T01920163
KGDJ 241415Z AUTO 13006KT 10SM SCT010 18/16 A3006 RMK AO2 T01810162
KGDJ 241355Z AUTO 14007KT 10SM CLR 17/16 A3005 RMK AO2 T01710157
KGDJ 241335Z AUTO 13006KT 10SM CLR 16/15 A3005 RMK AO2 T01630150
KGDJ 241315Z AUTO 13006KT 10SM CLR 16/15 A3005 RMK AO2 T01610149
KGDJ 241255Z AUTO 13005KT 7SM CLR 16/14 A3005 RMK AO2 T01560144
KGDJ 241235Z AUTO 12005KT 10SM CLR 16/14 A3005 RMK AO2 T01550142
KGDJ 241215Z AUTO 12004KT 10SM CLR 16/14 A3004 RMK AO2 T01560142
KGDJ 241155Z AUTO 11004KT 10SM CLR 16/14 A3004 RMK AO2 T01590143 10195 20159
KGDJ 241135Z AUTO 13005KT 10SM CLR 16/15 A3003 RMK AO2 T01640146
KGDJ 241115Z AUTO 11006KT 10SM CLR 17/15 A3003 RMK AO2 T01660148
KGDJ 241055Z AUTO 11006KT 10SM CLR 17/15 A3002 RMK AO2 T01680148
KGDJ 241035Z AUTO 11006KT 10SM CLR 17/15 A3002 RMK AO2 T01700147
KGDJ 241015Z AUTO 13004KT 10SM CLR 18/15 A3002 RMK AO2 T01830153
KGDJ 240955Z AUTO 15008KT 10SM CLR 19/15 A3002 RMK AO2 T01850154
KGDJ 240935Z AUTO 15007KT 10SM CLR 19/16 A3002 RMK AO2 T01860155
KGDJ 240915Z AUTO 14006KT 10SM SCT033 19/16 A3002 RMK AO2 T01880155
KGDJ 240855Z AUTO 15007KT 10SM BKN033 19/15 A3002 RMK AO2 T01900154
KGDJ 240835Z AUTO 15006KT 10SM SCT020 OVC033 19/16 A3002 RMK AO2 T01930155
KGDJ 240815Z AUTO 14005KT 10SM BKN020 OVC025 20/16 A3003 RMK AO2 T01950155
KGDJ 240755Z AUTO 13006KT 10SM SCT020 BKN026 OVC031 19/16 A3003 RMK AO2 T01930156
KGDJ 240735Z AUTO 14006KT 10SM SCT020 OVC031 19/16 A3003 RMK AO2 T01930156
KGDJ 240715Z AUTO 14006KT 10SM SCT022 BKN027 OVC031 20/16 A3003 RMK AO2 T01950155
KGDJ 240655Z AUTO 16007G14KT 10SM OVC026 20/16 A3004 RMK AO2 T01950156
KGDJ 240635Z AUTO 17007KT 10SM OVC026 19/16 A3004 RMK AO2 T01930156
KGDJ 240615Z AUTO 17005KT 10SM OVC024 19/16 A3004 RMK AO2 T01910155
KGDJ 240555Z AUTO 15005KT 10SM OVC024 19/16 A3004 RMK AO2 T01900156 10212 20190 402350158
KGDJ 240535Z AUTO 16004KT 10SM BKN024 BKN029 19/16 A3004 RMK AO2 T01900155
KGDJ 240515Z AUTO 16006KT 10SM SCT028 19/16 A3004 RMK AO2 T01900155
KGDJ 240455Z AUTO 16006KT 10SM CLR 19/16 A3004 RMK AO2 T01920155
KGDJ 240435Z AUTO 16007KT 10SM CLR 19/16 A3003 RMK AO2 T01940155
KGDJ 240415Z AUTO 15007KT 10SM CLR 20/16 A3003 RMK AO2 T01950155
KGDJ 240355Z AUTO 16007KT 10SM CLR 20/16 A3003 RMK AO2 T01960155
KGDJ 240335Z AUTO 16008KT 10SM CLR 20/16 A3002 RMK AO2 T01980155
KGDJ 240315Z AUTO 16011G16KT 10SM CLR 20/16 A3001 RMK AO2 T02000155
KGDJ 240255Z AUTO 15010G16KT 10SM CLR 20/16 A3000 RMK AO2 T02000155
KGDJ 240235Z AUTO 15010G14KT 10SM CLR 20/16 A2999 RMK AO2 T02000155
KGDJ 240215Z AUTO 15012KT 10SM CLR 20/16 A2999 RMK AO2 T02010156
KGDJ 240155Z AUTO 15010KT 10SM CLR 21/16 A2998 RMK AO2 T02050157
KGDJ 240135Z AUTO 16013KT 10SM CLR 21/16 A2998 RMK AO2 T02050156
KGDJ 240115Z AUTO 15010G16KT 10SM CLR 21/16 A2998 RMK AO2 T02080156
KGDJ 240055Z AUTO 16009G15KT 10SM CLR 21/16 A2998 RMK AO2 T02080158
KGDJ 240035Z AUTO 15011G14KT 10SM CLR 21/16 A2998 RMK AO2 T02100157
KGDJ 240015Z AUTO 16013G17KT 10SM CLR 21/16 A2999 RMK AO2 T02110157
KGDJ 232355Z AUTO 16013G17KT 10SM CLR 21/16 A2998 RMK AO2 T02120157 10235 20198
KGDJ 232335Z AUTO 15011G23KT 10SM CLR 22/16 A2998 RMK AO2 LTG DSNT N T02160157
KGDJ 232315Z AUTO 16013G21KT 10SM CLR 22/16 A2997 RMK AO2 LTG DSNT NE T02230158
KGDJ 232255Z AUTO 16013G20KT 10SM CLR 22/16 A2998 RMK AO2 T02200160
KGDJ 232235Z AUTO 16012G21KT 10SM SCT050 22/16 A2998 RMK AO2 T02180160
KGDJ 232215Z AUTO 16013G19KT 10SM SCT040 SCT046 BKN050 21/16 A2999 RMK AO2 T02090162
KGDJ 232155Z AUTO 16015G19KT 10SM RA SCT028 SCT039 OVC045 21/16 A3000 RMK AO2 T02100157
KGDJ 232135Z AUTO 17010KT 10SM SCT023 BKN030 OVC038 21/16 A3000 RMK AO2 T02120155
KGDJ 232115Z AUTO 17016G19KT 10SM BKN028 OVC033 21/15 A3000 RMK AO2 T02130154
KGDJ 232055Z AUTO 18018G23KT 10SM OVC027 22/15 A3000 RMK AO2 T02150152
KGDJ 232035Z AUTO 16014G19KT 10SM OVC027 22/15 A3000 RMK AO2 LTG DSNT NE T02200151
KGDJ 232015Z AUTO 17014G21KT 10SM OVC029 22/15 A3000 RMK AO2 T02230150
KGDJ 231955Z AUTO 17016G22KT 10SM OVC029 23/15 A3001 RMK AO2 LTG DSNT NE T02300151
KGDJ 231935Z AUTO 16019G23KT 10SM OVC027 23/15 A3001 RMK AO2 T02290149
KGDJ 231915Z AUTO 17017G21KT 10SM OVC025 22/15 A3002 RMK AO2 T02230149
KGDJ 231855Z AUTO 17013G20KT 10SM SCT023 BKN049 OVC085 22/15 A3004 RMK AO2 T02210148
KGDJ 231835Z AUTO 15018G23KT 10SM SCT021 OVC049 22/15 A3004 RMK AO2 T02200148
KGDJ 231815Z AUTO 16015G20KT 10SM SCT019 BKN049 OVC065 21/15 A3005 RMK AO2 T02110148
KGDJ 231755Z AUTO 17014G20KT 10SM BKN049 BKN065 OVC085 19/15 A3007 RMK AO2 T01940150 10194 20158
KGDJ 231735Z AUTO 16012KT 10SM OVC047 18/15 A3007 RMK AO2 T01840145
KGDJ 231715Z AUTO 15010KT 10SM SCT039 OVC045 18/14 A3008 RMK AO2 LTG DSNT NE T01780143
KGDJ 231655Z AUTO 15014KT 10SM BKN044 OVC050 18/14 A3008 RMK AO2 T01790137
KGDJ 231635Z AUTO 15015G21KT 10SM SCT032 OVC041 18/13 A3008 RMK AO2 LTG DSNT N AND NE T01810133
KGDJ 231615Z AUTO 16012G16KT 10SM OVC030 18/13 A3008 RMK AO2 LTG DSNT N AND NE T01800130
KGDJ 231555Z AUTO 16011KT 10SM OVC030 18/13 A3009 RMK AO2 LTG DSNT NE T01800128
KGDJ 231535Z AUTO 15007G14KT 10SM OVC030 18/13 A3009 RMK AO2 T01760125
KGDJ 231515Z AUTO 15011KT 10SM OVC030 17/12 A3008 RMK AO2 LTG DSNT NE T01730122
KGDJ 231455Z AUTO 14011KT 10SM BKN030 OVC039 17/12 A3008 RMK AO2 LTG DSNT NE T01680117
KGDJ 231435Z AUTO 14009KT 10SM OVC039 17/11 A3008 RMK AO2 LTG DSNT NE T01660113
KGDJ 231415Z AUTO 13007KT 10SM VCTS OVC039 16/11 A3008 RMK AO2 LTG DSNT N AND NE T01630109
KGDJ 231355Z AUTO 13008KT 10SM OVC039 16/11 A3007 RMK AO2 LTG DSNT NE AND E T01610105
KGDJ 231335Z AUTO 13009KT 10SM BKN039 16/10 A3007 RMK AO2 LTG DSNT N T01610101
KGDJ 231315Z AUTO 13009KT 10SM SCT047 SCT110 16/10 A3006 RMK AO2 LTG DSNT SE T01580096
KGDJ 231255Z AUTO 13007KT 10SM BKN045 16/10 A3005 RMK AO2 T01600095
KGDJ 231235Z AUTO 13009KT 10SM OVC045 17/09 A3005 RMK AO2 LTG DSNT NW T01650093
KGDJ 231215Z AUTO 13008KT 10SM BKN045 BKN065 OVC120 17/09 A3005 RMK AO2 T01670091
KGDJ 231155Z AUTO 13008KT 10SM SCT065 BKN120 17/09 A3004 RMK AO2 LTG DSNT SE T01740091 10197 20174
KGDJ 231135Z AUTO 15009KT 10SM SCT041 OVC065 18/09 A3004 RMK AO2 T01770090
KGDJ 231115Z AUTO 14010KT 10SM OVC041 18/09 A3003 RMK AO2 LTG DSNT SE AND W T01800088
KGDJ 231055Z AUTO 14010KT 10SM OVC041 18/09 A3002 RMK AO2 T01820087
KGDJ 231035Z AUTO 15009KT 10SM OVC043 18/09 A3002 RMK AO2 T01830087
KGDJ 231015Z AUTO 15010KT 10SM OVC043 19/09 A3001 RMK AO2 T01850089
KGDJ 230955Z AUTO 15008KT 10SM OVC041 19/09 A3001 RMK AO2 T01850092
KGDJ 230935Z AUTO 15010KT 10SM OVC043 19/09 A3001 RMK AO2 T01870092